Singers Glen, Virginia
Current Conditions -  °F | °C
As of 1:35 PM on Thursday 29 Jan 2015 (Local Time) from KVBW Reporting Station
Broken Clouds Broken Clouds  
Wind Chill: 32°   Ceiling: 12000
Heat Index: 38°   Visibility: 10mi
Dew Point: 17°   Wind: 8mph
Humidity: 42%   Direction: 150°SSE
Pressure: 30.03"   Gusts: NA
Location:  38.55°N, 78.91°W
Report Text: KVBW 291835Z AUTO 15007KT 10SM SCT060 BKN120 04/M08 A3003 RMK AO2 T00351085
Loading
Personal Weather Stations






























Interactive Weather Map New forecast layout! Learn more

10-Day Weather Forecast

Advertisements
Track Severe Weather on mobile